sensor_id;sensor_type;location;lat;lon;timestamp;pressure;altitude;pressure_sealevel;temperature;humidity
34979;BME280;21185;50.978;13.720;2023-03-09T00:00:47;95901.59;;;4.24;79.57
34979;BME280;21185;50.978;13.720;2023-03-09T00:05:59;95892.28;;;4.23;79.74
34979;BME280;21185;50.978;13.720;2023-03-09T00:11:03;95901.41;;;4.26;79.76
34979;BME280;21185;50.978;13.720;2023-03-09T00:16:17;95902.19;;;4.26;79.94
34979;BME280;21185;50.978;13.720;2023-03-09T00:21:20;95894.50;;;4.26;79.82
34979;BME280;21185;50.978;13.720;2023-03-09T00:26:50;95871.16;;;4.21;79.81
34979;BME280;21185;50.978;13.720;2023-03-09T00:31:53;95864.41;;;4.20;79.99
34979;BME280;21185;50.978;13.720;2023-03-09T00:36:55;95862.66;;;4.20;79.84
34979;BME280;21185;50.978;13.720;2023-03-09T00:41:57;95852.81;;;4.24;79.90
34979;BME280;21185;50.978;13.720;2023-03-09T00:46:59;95854.78;;;4.22;79.64
34979;BME280;21185;50.978;13.720;2023-03-09T00:52:01;95840.09;;;4.16;79.97
34979;BME280;21185;50.978;13.720;2023-03-09T00:57:03;95831.16;;;4.12;80.10
34979;BME280;21185;50.978;13.720;2023-03-09T01:02:05;95832.16;;;4.11;80.24
34979;BME280;21185;50.978;13.720;2023-03-09T01:07:07;95843.03;;;4.13;80.26
34979;BME280;21185;50.978;13.720;2023-03-09T01:12:09;95838.50;;;4.15;80.16
34979;BME280;21185;50.978;13.720;2023-03-09T01:17:11;95819.19;;;4.19;80.29
34979;BME280;21185;50.978;13.720;2023-03-09T01:22:13;95830.06;;;4.21;80.35
34979;BME280;21185;50.978;13.720;2023-03-09T01:27:20;95822.00;;;4.24;79.76
34979;BME280;21185;50.978;13.720;2023-03-09T01:32:22;95809.53;;;4.21;80.18
34979;BME280;21185;50.978;13.720;2023-03-09T01:37:24;95812.91;;;4.21;80.27
34979;BME280;21185;50.978;13.720;2023-03-09T01:42:26;95801.84;;;4.21;80.33
34979;BME280;21185;50.978;13.720;2023-03-09T01:47:28;95793.91;;;4.16;80.41
34979;BME280;21185;50.978;13.720;2023-03-09T01:52:32;95791.69;;;4.13;80.54
34979;BME280;21185;50.978;13.720;2023-03-09T01:57:39;95780.44;;;4.14;80.65
34979;BME280;21185;50.978;13.720;2023-03-09T02:02:43;95772.56;;;4.15;80.54
34979;BME280;21185;50.978;13.720;2023-03-09T02:07:49;95759.31;;;4.12;80.34
34979;BME280;21185;50.978;13.720;2023-03-09T02:12:58;95747.63;;;4.09;80.65
34979;BME280;21185;50.978;13.720;2023-03-09T02:18:01;95740.13;;;4.08;80.53
34979;BME280;21185;50.978;13.720;2023-03-09T02:23:15;95727.06;;;4.03;80.73
34979;BME280;21185;50.978;13.720;2023-03-09T02:28:22;95721.72;;;4.04;80.62
34979;BME280;21185;50.978;13.720;2023-03-09T02:33:26;95717.16;;;4.00;80.59
34979;BME280;21185;50.978;13.720;2023-03-09T02:38:31;95719.09;;;3.98;80.83
34979;BME280;21185;50.978;13.720;2023-03-09T02:43:37;95708.84;;;3.98;81.16
34979;BME280;21185;50.978;13.720;2023-03-09T02:48:42;95694.59;;;3.95;81.04
34979;BME280;21185;50.978;13.720;2023-03-09T02:53:44;95701.50;;;3.95;81.10
34979;BME280;21185;50.978;13.720;2023-03-09T02:58:47;95684.16;;;3.97;81.21
34979;BME280;21185;50.978;13.720;2023-03-09T03:03:50;95669.75;;;3.96;81.13
34979;BME280;21185;50.978;13.720;2023-03-09T03:08:52;95666.19;;;3.97;81.21
34979;BME280;21185;50.978;13.720;2023-03-09T03:13:55;95656.91;;;3.96;81.21
34979;BME280;21185;50.978;13.720;2023-03-09T03:18:58;95662.84;;;3.96;81.25
34979;BME280;21185;50.978;13.720;2023-03-09T03:24:04;95664.25;;;3.99;81.36
34979;BME280;21185;50.978;13.720;2023-03-09T03:29:09;95655.38;;;4.01;81.01
34979;BME280;21185;50.978;13.720;2023-03-09T03:34:11;95654.22;;;4.04;81.44
34979;BME280;21185;50.978;13.720;2023-03-09T03:39:17;95659.00;;;4.07;81.40
34979;BME280;21185;50.978;13.720;2023-03-09T03:44:21;95667.53;;;4.14;81.30
34979;BME280;21185;50.978;13.720;2023-03-09T03:49:23;95671.31;;;4.18;81.16
34979;BME280;21185;50.978;13.720;2023-03-09T03:54:27;95683.78;;;4.21;81.29
34979;BME280;21185;50.978;13.720;2023-03-09T03:59:31;95676.50;;;4.25;81.10
34979;BME280;21185;50.978;13.720;2023-03-09T04:04:33;95684.63;;;4.28;81.20
34979;BME280;21185;50.978;13.720;2023-03-09T04:09:41;95689.75;;;4.28;81.16
34979;BME280;21185;50.978;13.720;2023-03-09T04:14:47;95694.28;;;4.26;81.05
34979;BME280;21185;50.978;13.720;2023-03-09T04:19:49;95700.03;;;4.28;81.08
34979;BME280;21185;50.978;13.720;2023-03-09T04:24:51;95682.66;;;4.30;81.03
34979;BME280;21185;50.978;13.720;2023-03-09T04:29:53;95684.25;;;4.31;81.05
34979;BME280;21185;50.978;13.720;2023-03-09T04:34:59;95684.25;;;4.31;81.15
34979;BME280;21185;50.978;13.720;2023-03-09T04:40:01;95680.69;;;4.32;80.90
34979;BME280;21185;50.978;13.720;2023-03-09T04:45:05;95682.28;;;4.33;80.95
34979;BME280;21185;50.978;13.720;2023-03-09T04:50:08;95685.66;;;4.34;81.17
34979;BME280;21185;50.978;13.720;2023-03-09T04:55:16;95687.06;;;4.36;81.18
34979;BME280;21185;50.978;13.720;2023-03-09T05:00:19;95684.47;;;4.36;81.00
34979;BME280;21185;50.978;13.720;2023-03-09T05:05:22;95679.97;;;4.38;81.14
34979;BME280;21185;50.978;13.720;2023-03-09T05:10:27;95678.38;;;4.37;81.14
34979;BME280;21185;50.978;13.720;2023-03-09T05:15:32;95682.09;;;4.35;81.06
34979;BME280;21185;50.978;13.720;2023-03-09T05:20:36;95676.78;;;4.36;81.49
34979;BME280;21185;50.978;13.720;2023-03-09T05:25:40;95690.22;;;4.38;81.27
34979;BME280;21185;50.978;13.720;2023-03-09T05:30:43;95694.38;;;4.39;81.45
34979;BME280;21185;50.978;13.720;2023-03-09T05:35:46;95692.19;;;4.36;81.27
34979;BME280;21185;50.978;13.720;2023-03-09T05:40:48;95690.59;;;4.35;81.27
34979;BME280;21185;50.978;13.720;2023-03-09T05:45:55;95693.16;;;4.35;81.41
34979;BME280;21185;50.978;13.720;2023-03-09T05:51:02;95688.63;;;4.37;81.50
34979;BME280;21185;50.978;13.720;2023-03-09T05:56:05;95692.78;;;4.38;81.11
34979;BME280;21185;50.978;13.720;2023-03-09T06:01:16;95697.94;;;4.38;81.28
34979;BME280;21185;50.978;13.720;2023-03-09T06:06:19;95704.03;;;4.37;80.85
34979;BME280;21185;50.978;13.720;2023-03-09T06:11:21;95705.63;;;4.38;81.25
34979;BME280;21185;50.978;13.720;2023-03-09T06:16:23;95708.81;;;4.40;81.43
34979;BME280;21185;50.978;13.720;2023-03-09T06:21:26;95718.69;;;4.43;81.26
34979;BME280;21185;50.978;13.720;2023-03-09T06:26:29;95725.06;;;4.47;81.03
34979;BME280;21185;50.978;13.720;2023-03-09T06:31:39;95735.75;;;4.51;81.23
34979;BME280;21185;50.978;13.720;2023-03-09T06:36:42;95750.00;;;4.53;81.48
34979;BME280;21185;50.978;13.720;2023-03-09T06:41:46;95756.34;;;4.58;81.43
34979;BME280;21185;50.978;13.720;2023-03-09T06:46:57;95774.13;;;4.59;81.45
34979;BME280;21185;50.978;13.720;2023-03-09T06:52:02;95782.44;;;4.61;81.63
34979;BME280;21185;50.978;13.720;2023-03-09T06:57:05;95783.84;;;4.64;81.54
34979;BME280;21185;50.978;13.720;2023-03-09T07:02:12;95800.47;;;4.68;81.56
34979;BME280;21185;50.978;13.720;2023-03-09T07:07:15;95831.91;;;4.70;81.79
34979;BME280;21185;50.978;13.720;2023-03-09T07:12:17;95857.59;;;4.70;81.96
34979;BME280;21185;50.978;13.720;2023-03-09T07:17:19;95863.34;;;4.72;81.99
34979;BME280;21185;50.978;13.720;2023-03-09T07:22:21;95888.06;;;4.73;81.78
34979;BME280;21185;50.978;13.720;2023-03-09T07:27:23;95906.03;;;4.73;81.93
34979;BME280;21185;50.978;13.720;2023-03-09T07:32:25;95928.56;;;4.71;82.15
34979;BME280;21185;50.978;13.720;2023-03-09T07:37:28;95955.41;;;4.68;81.98
34979;BME280;21185;50.978;13.720;2023-03-09T07:42:30;95966.84;;;4.66;81.78
34979;BME280;21185;50.978;13.720;2023-03-09T07:48:01;95981.28;;;4.67;82.16
34979;BME280;21185;50.978;13.720;2023-03-09T07:53:05;96019.81;;;4.67;82.03
34979;BME280;21185;50.978;13.720;2023-03-09T07:58:06;96055.50;;;4.62;82.23
34979;BME280;21185;50.978;13.720;2023-03-09T08:03:12;96066.41;;;4.49;82.19
34979;BME280;21185;50.978;13.720;2023-03-09T08:08:13;96082.44;;;4.36;82.24
34979;BME280;21185;50.978;13.720;2023-03-09T08:13:16;96085.44;;;4.25;82.17
34979;BME280;21185;50.978;13.720;2023-03-09T08:18:18;96096.06;;;4.22;82.42
34979;BME280;21185;50.978;13.720;2023-03-09T08:23:21;96115.97;;;4.20;82.02
34979;BME280;21185;50.978;13.720;2023-03-09T08:28:23;96127.22;;;4.19;82.38
34979;BME280;21185;50.978;13.720;2023-03-09T08:33:26;96141.28;;;4.23;82.67
34979;BME280;21185;50.978;13.720;2023-03-09T08:38:28;96159.53;;;4.28;82.52
34979;BME280;21185;50.978;13.720;2023-03-09T08:43:29;96174.78;;;4.30;82.17
34979;BME280;21185;50.978;13.720;2023-03-09T08:48:31;96192.91;;;4.28;82.33
34979;BME280;21185;50.978;13.720;2023-03-09T08:53:37;96207.69;;;4.26;82.42
34979;BME280;21185;50.978;13.720;2023-03-09T08:58:39;96216.53;;;4.23;82.27
34979;BME280;21185;50.978;13.720;2023-03-09T09:03:41;96239.34;;;4.18;82.11
34979;BME280;21185;50.978;13.720;2023-03-09T09:08:43;96248.03;;;4.17;81.84
34979;BME280;21185;50.978;13.720;2023-03-09T09:13:46;96254.41;;;4.21;82.16
34979;BME280;21185;50.978;13.720;2023-03-09T09:18:48;96278.59;;;4.27;82.25
34979;BME280;21185;50.978;13.720;2023-03-09T09:23:51;96278.88;;;4.32;82.16
34979;BME280;21185;50.978;13.720;2023-03-09T09:28:53;96275.53;;;4.32;82.18
34979;BME280;21185;50.978;13.720;2023-03-09T09:33:58;96286.69;;;4.39;82.59
34979;BME280;21185;50.978;13.720;2023-03-09T09:39:00;96300.91;;;4.49;82.55
34979;BME280;21185;50.978;13.720;2023-03-09T09:44:06;96301.81;;;4.57;82.33
34979;BME280;21185;50.978;13.720;2023-03-09T09:49:22;96319.72;;;4.65;82.81
34979;BME280;21185;50.978;13.720;2023-03-09T09:59:58;96336.28;;;4.85;83.12
34979;BME280;21185;50.978;13.720;2023-03-09T10:05:42;96335.84;;;4.96;83.34
34979;BME280;21185;50.978;13.720;2023-03-09T10:10:45;96342.97;;;5.09;83.61
34979;BME280;21185;50.978;13.720;2023-03-09T10:15:48;96348.09;;;5.24;83.23
34979;BME280;21185;50.978;13.720;2023-03-09T10:21:15;96343.59;;;5.40;83.26
34979;BME280;21185;50.978;13.720;2023-03-09T10:31:40;96356.56;;;5.62;83.50
34979;BME280;21185;50.978;13.720;2023-03-09T10:37:00;96359.31;;;5.75;83.36
34979;BME280;21185;50.978;13.720;2023-03-09T10:42:24;96362.03;;;5.88;83.51
34979;BME280;21185;50.978;13.720;2023-03-09T10:47:50;96374.84;;;5.96;83.35
34979;BME280;21185;50.978;13.720;2023-03-09T10:52:54;96387.78;;;6.03;83.47
34979;BME280;21185;50.978;13.720;2023-03-09T10:57:59;96388.34;;;5.98;83.29
34979;BME280;21185;50.978;13.720;2023-03-09T11:03:01;96396.16;;;5.90;83.23
34979;BME280;21185;50.978;13.720;2023-03-09T11:08:03;96400.81;;;5.86;83.30
34979;BME280;21185;50.978;13.720;2023-03-09T11:13:18;96405.19;;;5.86;83.46
34979;BME280;21185;50.978;13.720;2023-03-09T11:18:31;96410.00;;;5.89;83.40
34979;BME280;21185;50.978;13.720;2023-03-09T11:23:45;96415.78;;;5.91;83.47
34979;BME280;21185;50.978;13.720;2023-03-09T11:34:11;96416.03;;;5.96;83.28
34979;BME280;21185;50.978;13.720;2023-03-09T11:39:29;96412.56;;;6.04;83.29
34979;BME280;21185;50.978;13.720;2023-03-09T11:44:39;96422.16;;;6.10;83.38
34979;BME280;21185;50.978;13.720;2023-03-09T11:49:43;96417.09;;;6.16;83.30
34979;BME280;21185;50.978;13.720;2023-03-09T11:54:46;96431.81;;;6.23;83.52
34979;BME280;21185;50.978;13.720;2023-03-09T11:59:54;96426.75;;;6.29;83.29
34979;BME280;21185;50.978;13.720;2023-03-09T12:04:57;96429.94;;;6.31;83.35
34979;BME280;21185;50.978;13.720;2023-03-09T12:15:33;96419.63;;;6.31;83.50
34979;BME280;21185;50.978;13.720;2023-03-09T12:20:39;96432.16;;;6.34;83.69
34979;BME280;21185;50.978;13.720;2023-03-09T12:25:55;96427.81;;;6.35;83.26
34979;BME280;21185;50.978;13.720;2023-03-09T12:30:58;96433.22;;;6.25;83.67
34979;BME280;21185;50.978;13.720;2023-03-09T12:36:00;96438.66;;;6.15;83.59
34979;BME280;21185;50.978;13.720;2023-03-09T12:41:02;96447.81;;;6.03;83.70
34979;BME280;21185;50.978;13.720;2023-03-09T12:51:47;96448.13;;;5.71;84.01
34979;BME280;21185;50.978;13.720;2023-03-09T12:56:51;96444.22;;;5.60;83.92
34979;BME280;21185;50.978;13.720;2023-03-09T13:01:55;96450.69;;;5.56;84.13
34979;BME280;21185;50.978;13.720;2023-03-09T13:07:01;96463.19;;;5.59;84.15
34979;BME280;21185;50.978;13.720;2023-03-09T13:12:30;96456.28;;;5.60;84.04
34979;BME280;21185;50.978;13.720;2023-03-09T13:17:35;96472.84;;;5.57;83.94
34979;BME280;21185;50.978;13.720;2023-03-09T13:22:41;96471.72;;;5.60;83.88
34979;BME280;21185;50.978;13.720;2023-03-09T13:27:44;96470.47;;;5.56;83.78
34979;BME280;21185;50.978;13.720;2023-03-09T13:37:59;96470.00;;;5.52;83.66
34979;BME280;21185;50.978;13.720;2023-03-09T13:43:20;96481.28;;;5.51;83.93
34979;BME280;21185;50.978;13.720;2023-03-09T13:48:24;96478.69;;;5.51;83.79
34979;BME280;21185;50.978;13.720;2023-03-09T13:53:27;96475.78;;;5.54;83.96
34979;BME280;21185;50.978;13.720;2023-03-09T13:58:37;96480.22;;;5.60;83.87
34979;BME280;21185;50.978;13.720;2023-03-09T14:03:47;96486.97;;;5.61;83.95
34979;BME280;21185;50.978;13.720;2023-03-09T14:08:50;96486.63;;;5.64;83.60
34979;BME280;21185;50.978;13.720;2023-03-09T14:14:01;96482.72;;;5.68;83.55
34979;BME280;21185;50.978;13.720;2023-03-09T14:19:19;96489.41;;;5.77;83.75
34979;BME280;21185;50.978;13.720;2023-03-09T14:24:30;96489.66;;;5.82;83.54
34979;BME280;21185;50.978;13.720;2023-03-09T14:29:33;96493.84;;;5.83;83.57
34979;BME280;21185;50.978;13.720;2023-03-09T14:34:35;96493.22;;;5.81;83.65
34979;BME280;21185;50.978;13.720;2023-03-09T14:39:38;96479.91;;;5.78;84.11
34979;BME280;21185;50.978;13.720;2023-03-09T14:50:16;96480.13;;;5.91;83.93
34979;BME280;21185;50.978;13.720;2023-03-09T14:55:22;96492.50;;;5.88;84.09
34979;BME280;21185;50.978;13.720;2023-03-09T15:00:25;96495.75;;;5.90;84.16
34979;BME280;21185;50.978;13.720;2023-03-09T15:05:27;96498.59;;;5.95;84.14
34979;BME280;21185;50.978;13.720;2023-03-09T15:10:29;96489.72;;;5.97;83.94
34979;BME280;21185;50.978;13.720;2023-03-09T15:15:32;96490.16;;;6.01;83.89
34979;BME280;21185;50.978;13.720;2023-03-09T15:20:34;96499.13;;;6.05;84.01
34979;BME280;21185;50.978;13.720;2023-03-09T15:25:45;96501.88;;;6.03;83.97
34979;BME280;21185;50.978;13.720;2023-03-09T15:30:52;96506.75;;;5.98;83.85
34979;BME280;21185;50.978;13.720;2023-03-09T15:35:55;96529.13;;;5.98;84.26
34979;BME280;21185;50.978;13.720;2023-03-09T15:40:57;96504.38;;;5.97;84.07
34979;BME280;21185;50.978;13.720;2023-03-09T15:46:03;96513.25;;;5.94;84.19
34979;BME280;21185;50.978;13.720;2023-03-09T15:51:05;96511.47;;;5.95;84.29
34979;BME280;21185;50.978;13.720;2023-03-09T15:56:09;96502.41;;;5.99;84.32
34979;BME280;21185;50.978;13.720;2023-03-09T16:01:16;96509.16;;;6.00;84.19
34979;BME280;21185;50.978;13.720;2023-03-09T16:06:25;96517.84;;;5.99;84.00
34979;BME280;21185;50.978;13.720;2023-03-09T16:11:26;96519.47;;;6.00;84.24
34979;BME280;21185;50.978;13.720;2023-03-09T16:16:28;96530.56;;;6.00;84.10
34979;BME280;21185;50.978;13.720;2023-03-09T16:21:31;96532.34;;;6.00;84.25
34979;BME280;21185;50.978;13.720;2023-03-09T16:26:33;96531.34;;;6.01;84.28
34979;BME280;21185;50.978;13.720;2023-03-09T16:31:34;96532.16;;;6.01;84.14
34979;BME280;21185;50.978;13.720;2023-03-09T16:36:36;96535.72;;;6.00;84.22
34979;BME280;21185;50.978;13.720;2023-03-09T16:41:38;96538.47;;;5.99;84.09
34979;BME280;21185;50.978;13.720;2023-03-09T16:46:40;96539.59;;;5.96;84.33
34979;BME280;21185;50.978;13.720;2023-03-09T16:51:42;96533.66;;;5.96;84.19
34979;BME280;21185;50.978;13.720;2023-03-09T16:56:45;96530.47;;;5.94;84.25
34979;BME280;21185;50.978;13.720;2023-03-09T17:01:48;96537.38;;;5.93;84.30
34979;BME280;21185;50.978;13.720;2023-03-09T17:06:50;96542.19;;;5.96;84.50
34979;BME280;21185;50.978;13.720;2023-03-09T17:11:52;96550.69;;;5.97;84.53
34979;BME280;21185;50.978;13.720;2023-03-09T17:16:54;96550.34;;;6.00;84.33
34979;BME280;21185;50.978;13.720;2023-03-09T17:21:57;96550.34;;;6.00;84.42
34979;BME280;21185;50.978;13.720;2023-03-09T17:26:59;96547.34;;;5.96;84.45
34979;BME280;21185;50.978;13.720;2023-03-09T17:32:01;96557.44;;;5.98;84.48
34979;BME280;21185;50.978;13.720;2023-03-09T17:37:06;96555.06;;;5.96;84.28
34979;BME280;21185;50.978;13.720;2023-03-09T17:42:08;96548.66;;;5.92;84.46
34979;BME280;21185;50.978;13.720;2023-03-09T17:47:10;96551.41;;;5.91;84.59
34979;BME280;21185;50.978;13.720;2023-03-09T17:52:12;96543.03;;;5.89;84.64
34979;BME280;21185;50.978;13.720;2023-03-09T17:57:18;96559.63;;;5.86;84.72
34979;BME280;21185;50.978;13.720;2023-03-09T18:02:20;96562.38;;;5.84;84.62
34979;BME280;21185;50.978;13.720;2023-03-09T18:07:22;96554.81;;;5.83;84.83
34979;BME280;21185;50.978;13.720;2023-03-09T18:12:25;96557.84;;;5.86;84.78
34979;BME280;21185;50.978;13.720;2023-03-09T18:17:27;96552.19;;;5.91;84.50
34979;BME280;21185;50.978;13.720;2023-03-09T18:22:29;96543.84;;;5.89;84.61
34979;BME280;21185;50.978;13.720;2023-03-09T18:27:31;96525.19;;;5.87;84.68
34979;BME280;21185;50.978;13.720;2023-03-09T18:32:33;96525.53;;;5.84;84.61
34979;BME280;21185;50.978;13.720;2023-03-09T18:37:35;96516.03;;;5.84;84.69
34979;BME280;21185;50.978;13.720;2023-03-09T18:42:38;96509.09;;;5.85;84.68
34979;BME280;21185;50.978;13.720;2023-03-09T18:47:40;96504.75;;;5.85;84.76
34979;BME280;21185;50.978;13.720;2023-03-09T18:52:42;96509.91;;;5.85;84.66
34979;BME280;21185;50.978;13.720;2023-03-09T18:57:44;96496.06;;;5.86;84.72
34979;BME280;21185;50.978;13.720;2023-03-09T19:02:46;96490.75;;;5.88;84.77
34979;BME280;21185;50.978;13.720;2023-03-09T19:07:48;96484.00;;;5.87;84.76
34979;BME280;21185;50.978;13.720;2023-03-09T19:12:50;96481.41;;;5.87;84.87
34979;BME280;21185;50.978;13.720;2023-03-09T19:17:53;96476.44;;;5.85;84.93
34979;BME280;21185;50.978;13.720;2023-03-09T19:22:55;96452.13;;;5.88;84.82
34979;BME280;21185;50.978;13.720;2023-03-09T19:27:57;96446.03;;;5.89;84.94
34979;BME280;21185;50.978;13.720;2023-03-09T19:33:02;96446.84;;;5.90;84.84
34979;BME280;21185;50.978;13.720;2023-03-09T19:38:03;96457.56;;;5.93;85.00
34979;BME280;21185;50.978;13.720;2023-03-09T19:43:07;96439.19;;;5.96;84.86
34979;BME280;21185;50.978;13.720;2023-03-09T19:48:09;96418.06;;;6.01;84.92
34979;BME280;21185;50.978;13.720;2023-03-09T19:53:11;96410.00;;;6.04;84.81
34979;BME280;21185;50.978;13.720;2023-03-09T19:58:14;96404.31;;;6.08;84.90
34979;BME280;21185;50.978;13.720;2023-03-09T20:03:16;96393.38;;;6.21;85.53
34979;BME280;21185;50.978;13.720;2023-03-09T20:08:18;96381.31;;;6.43;86.26
34979;BME280;21185;50.978;13.720;2023-03-09T20:13:20;96379.94;;;6.62;86.52
34979;BME280;21185;50.978;13.720;2023-03-09T20:18:23;96381.66;;;6.76;86.41
34979;BME280;21185;50.978;13.720;2023-03-09T20:23:25;96375.81;;;6.89;86.82
34979;BME280;21185;50.978;13.720;2023-03-09T20:28:27;96371.56;;;7.02;87.39
34979;BME280;21185;50.978;13.720;2023-03-09T20:33:29;96392.50;;;7.14;87.20
34979;BME280;21185;50.978;13.720;2023-03-09T20:38:32;96394.56;;;7.25;87.65
34979;BME280;21185;50.978;13.720;2023-03-09T20:43:35;96409.53;;;7.36;87.71
34979;BME280;21185;50.978;13.720;2023-03-09T20:48:37;96406.81;;;7.44;87.71
34979;BME280;21185;50.978;13.720;2023-03-09T20:53:43;96409.22;;;7.46;87.55
34979;BME280;21185;50.978;13.720;2023-03-09T20:58:46;96411.78;;;7.46;87.42
34979;BME280;21185;50.978;13.720;2023-03-09T21:03:49;96410.38;;;7.43;87.14
34979;BME280;21185;50.978;13.720;2023-03-09T21:08:52;96402.97;;;7.34;87.23
34979;BME280;21185;50.978;13.720;2023-03-09T21:13:54;96400.94;;;7.29;87.42
34979;BME280;21185;50.978;13.720;2023-03-09T21:18:58;96393.41;;;7.28;87.34
34979;BME280;21185;50.978;13.720;2023-03-09T21:24:00;96380.88;;;7.25;87.48
34979;BME280;21185;50.978;13.720;2023-03-09T21:29:02;96381.25;;;7.22;87.17
34979;BME280;21185;50.978;13.720;2023-03-09T21:34:05;96364.38;;;7.19;87.02
34979;BME280;21185;50.978;13.720;2023-03-09T21:39:10;96357.78;;;7.17;87.09
34979;BME280;21185;50.978;13.720;2023-03-09T21:44:11;96363.31;;;7.13;86.99
34979;BME280;21185;50.978;13.720;2023-03-09T21:49:14;96364.31;;;7.12;87.15
34979;BME280;21185;50.978;13.720;2023-03-09T21:54:17;96348.47;;;7.15;87.38
34979;BME280;21185;50.978;13.720;2023-03-09T21:59:19;96345.50;;;7.19;87.04
34979;BME280;21185;50.978;13.720;2023-03-09T22:04:21;96331.25;;;7.23;87.23
34979;BME280;21185;50.978;13.720;2023-03-09T22:09:22;96333.06;;;7.29;87.46
34979;BME280;21185;50.978;13.720;2023-03-09T22:14:24;96322.19;;;7.33;87.43
34979;BME280;21185;50.978;13.720;2023-03-09T22:19:27;96309.16;;;7.41;87.34
34979;BME280;21185;50.978;13.720;2023-03-09T22:24:30;96308.56;;;7.46;87.58
34979;BME280;21185;50.978;13.720;2023-03-09T22:29:31;96295.91;;;7.51;87.54
34979;BME280;21185;50.978;13.720;2023-03-09T22:34:33;96290.97;;;7.56;87.33
34979;BME280;21185;50.978;13.720;2023-03-09T22:39:35;96280.06;;;7.61;87.37
34979;BME280;21185;50.978;13.720;2023-03-09T22:44:38;96277.88;;;7.64;87.24
34979;BME280;21185;50.978;13.720;2023-03-09T22:49:42;96276.31;;;7.70;87.11
34979;BME280;21185;50.978;13.720;2023-03-09T22:54:47;96266.59;;;7.72;87.25
34979;BME280;21185;50.978;13.720;2023-03-09T22:59:56;96260.88;;;7.76;87.41
34979;BME280;21185;50.978;13.720;2023-03-09T23:04:59;96258.69;;;7.80;87.23
34979;BME280;21185;50.978;13.720;2023-03-09T23:10:02;96239.03;;;7.86;87.40
34979;BME280;21185;50.978;13.720;2023-03-09T23:15:05;96234.47;;;7.88;87.26
34979;BME280;21185;50.978;13.720;2023-03-09T23:20:07;96230.91;;;7.89;87.18
34979;BME280;21185;50.978;13.720;2023-03-09T23:25:17;96226.72;;;7.88;87.00
34979;BME280;21185;50.978;13.720;2023-03-09T23:30:19;96213.81;;;7.88;86.97
34979;BME280;21185;50.978;13.720;2023-03-09T23:35:21;96204.09;;;7.83;86.72
34979;BME280;21185;50.978;13.720;2023-03-09T23:40:22;96201.28;;;7.78;86.63
34979;BME280;21185;50.978;13.720;2023-03-09T23:45:24;96197.91;;;7.71;86.69
34979;BME280;21185;50.978;13.720;2023-03-09T23:50:26;96189.75;;;7.67;86.63
34979;BME280;21185;50.978;13.720;2023-03-09T23:55:28;96190.31;;;7.63;86.47
